Time;durP1;ratioP1;P1;durP2;ratioP2;P2;SDS_P1;SDS_P2;PMS_P1;PMS_P2;Temp;Humidity;BMP_temperature;BMP_pressure;BME280_temperature;BME280_humidity;BME280_pressure;Samples;Min_cycle;Max_cycle;Signal;HPM_P1;HPM_P2
2023/11/02 00:01:38;;;;;;;3.00;1.83;;;14.40;99.90;;;;;;4983596;28;20649;-71
2023/11/02 00:04:06;;;;;;;2.27;1.60;;;14.40;99.90;;;;;;5000277;28;20519;-70
2023/11/02 00:06:37;;;;;;;3.10;1.50;;;14.40;99.90;;;;;;5000292;28;20812;-72
2023/11/02 00:09:22;;;;;;;1.97;1.57;;;14.40;99.90;;;;;;5000594;28;20436;-70
2023/11/02 00:11:49;;;;;;;2.20;1.77;;;14.40;99.90;;;;;;5000615;28;20444;-71
2023/11/02 00:14:16;;;;;;;1.50;1.40;;;14.40;99.90;;;;;;4967479;28;20439;-71
2023/11/02 00:16:43;;;;;;;1.90;1.57;;;14.40;99.90;;;;;;4999746;28;20413;-70
2023/11/02 00:19:37;;;;;;;2.50;1.60;;;14.40;99.90;;;;;;4999516;28;21015;-71
2023/11/02 00:22:11;;;;;;;2.30;1.37;;;14.40;99.90;;;;;;5001458;28;20472;-71
2023/11/02 00:24:41;;;;;;;2.60;1.50;;;14.40;99.90;;;;;;5000829;28;21071;-71
2023/11/02 00:27:10;;;;;;;2.10;1.37;;;14.40;99.90;;;;;;5001306;28;20424;-71
2023/11/02 00:29:39;;;;;;;4.00;1.67;;;14.40;99.90;;;;;;4999571;28;20420;-71
2023/11/02 00:32:05;;;;;;;1.77;1.67;;;14.30;99.90;;;;;;4982955;28;20460;-71
2023/11/02 00:34:34;;;;;;;1.60;1.50;;;14.40;99.90;;;;;;4999013;28;20442;-71
2023/11/02 00:37:03;;;;;;;2.40;1.47;;;14.30;99.90;;;;;;4998986;28;21423;-71
2023/11/02 00:39:29;;;;;;;2.23;1.70;;;14.40;99.90;;;;;;4982882;28;20891;-72
2023/11/02 00:41:55;;;;;;;2.67;1.80;;;14.30;99.90;;;;;;4982231;28;20579;-71
2023/11/02 00:44:23;;;;;;;3.83;1.83;;;14.30;99.90;;;;;;4999755;28;20557;-71
2023/11/02 00:46:50;;;;;;;2.00;1.90;;;14.30;99.90;;;;;;4966681;28;20433;-71
2023/11/02 00:49:23;;;;;;;2.60;1.70;;;14.30;99.90;;;;;;4999999;28;20505;-70
2023/11/02 00:52:01;;;;;;;2.60;1.53;;;14.30;99.90;;;;;;5000934;28;20792;-72
2023/11/02 00:54:46;;;;;;;2.47;1.63;;;14.30;99.90;;;;;;5000826;28;21113;-71
2023/11/02 00:57:15;;;;;;;2.43;1.50;;;14.30;99.90;;;;;;4998309;28;20404;-71
2023/11/02 00:59:44;;;;;;;5.83;2.00;;;14.30;99.90;;;;;;4998578;28;20515;-72
2023/11/02 01:02:14;;;;;;;1.87;1.50;;;14.30;99.90;;;;;;4998557;28;20471;-71
2023/11/02 01:04:43;;;;;;;2.10;1.90;;;14.30;99.90;;;;;;4999425;28;20413;-71
2023/11/02 01:07:14;;;;;;;1.70;1.60;;;14.30;99.90;;;;;;4998807;28;20551;-72
2023/11/02 01:09:51;;;;;;;3.17;1.77;;;14.30;99.90;;;;;;4982357;28;20828;-70
2023/11/02 01:12:36;;;;;;;2.80;2.00;;;14.30;99.90;;;;;;4982333;28;20961;-71
2023/11/02 01:15:11;;;;;;;1.70;1.60;;;14.30;99.90;;;;;;4998866;28;20458;-70
2023/11/02 01:17:43;;;;;;;3.80;1.90;;;14.30;99.90;;;;;;4998803;28;20857;-71
2023/11/02 01:20:10;;;;;;;6.17;2.23;;;14.30;99.90;;;;;;4998829;28;20579;-71
2023/11/02 01:22:52;;;;;;;2.80;1.60;;;14.30;99.90;;;;;;4982131;28;21070;-71
2023/11/02 01:25:21;;;;;;;2.93;1.70;;;14.30;99.90;;;;;;4982219;28;20444;-71
2023/11/02 01:27:49;;;;;;;1.57;1.47;;;14.30;99.90;;;;;;4999002;28;20433;-71
2023/11/02 01:30:17;;;;;;;2.60;1.60;;;14.30;99.90;;;;;;4982131;28;20438;-71
2023/11/02 01:32:43;;;;;;;1.73;1.63;;;14.30;99.90;;;;;;4999340;28;20447;-71
2023/11/02 01:35:37;;;;;;;2.27;1.60;;;14.20;99.90;;;;;;4998835;28;20439;-70
2023/11/02 01:38:06;;;;;;;3.23;1.60;;;14.30;99.90;;;;;;4982671;28;20535;-71
2023/11/02 01:40:55;;;;;;;1.80;1.37;;;14.30;99.90;;;;;;5000117;28;20459;-70
2023/11/02 01:43:35;;;;;;;2.23;1.63;;;14.20;99.90;;;;;;4998543;28;20974;-71
2023/11/02 01:46:04;;;;;;;2.77;1.80;;;14.20;99.90;;;;;;4998254;28;20408;-71
2023/11/02 01:48:44;;;;;;;2.10;1.50;;;14.20;99.90;;;;;;4998950;28;20413;-71
2023/11/02 01:51:33;;;;;;;2.37;1.50;;;14.30;99.90;;;;;;4999643;28;20470;-71
2023/11/02 01:54:02;;;;;;;3.53;2.03;;;14.20;99.90;;;;;;5000540;28;20816;-72
2023/11/02 01:56:49;;;;;;;3.47;2.13;;;14.20;99.90;;;;;;5002683;28;20410;-71
2023/11/02 01:59:33;;;;;;;1.63;1.53;;;14.20;99.90;;;;;;5002857;28;20412;-72
2023/11/02 02:02:13;;;;;;;2.80;1.50;;;14.20;99.90;;;;;;5002182;28;20459;-72
2023/11/02 02:05:04;;;;;;;3.50;1.50;;;14.20;99.90;;;;;;5001869;28;20884;-70
2023/11/02 02:08:15;;;;;;;1.90;1.50;;;14.20;99.90;;;;;;5001846;28;20433;-71
2023/11/02 02:10:44;;;;;;;1.50;1.40;;;14.20;99.90;;;;;;4941617;28;20493;-71
2023/11/02 02:13:33;;;;;;;2.30;1.60;;;14.20;99.90;;;;;;5002288;28;20495;-71
2023/11/02 02:16:11;;;;;;;4.40;1.70;;;14.20;99.90;;;;;;4969304;28;20416;-72
2023/11/02 02:18:50;;;;;;;1.70;1.60;;;14.20;99.90;;;;;;5003102;28;20399;-71
2023/11/02 02:21:30;;;;;;;3.40;1.40;;;14.20;99.90;;;;;;4986726;28;20541;-70
2023/11/02 02:24:30;;;;;;;1.77;1.60;;;14.20;99.90;;;;;;5003595;28;20417;-71
2023/11/02 02:27:06;;;;;;;3.20;1.83;;;14.20;99.90;;;;;;4964596;28;20470;-72
2023/11/02 02:29:50;;;;;;;2.20;1.50;;;14.20;99.90;;;;;;5001891;28;20416;-71
2023/11/02 02:32:33;;;;;;;4.63;1.70;;;14.20;99.90;;;;;;5002463;28;20443;-72
2023/11/02 02:35:08;;;;;;;2.63;1.80;;;14.20;99.90;;;;;;5002875;28;20403;-71
2023/11/02 02:37:36;;;;;;;1.50;1.40;;;14.20;99.90;;;;;;4985194;28;20456;-71
2023/11/02 02:40:07;;;;;;;1.77;1.57;;;14.20;99.90;;;;;;5003337;28;20445;-71
2023/11/02 02:42:37;;;;;;;4.17;1.90;;;14.20;99.90;;;;;;5001207;28;20834;-71
2023/11/02 02:45:07;;;;;;;2.20;1.83;;;14.20;99.90;;;;;;5002007;28;20411;-72
2023/11/02 02:47:36;;;;;;;3.30;1.70;;;14.20;99.90;;;;;;5002079;28;20449;-72
2023/11/02 02:50:03;;;;;;;1.67;1.57;;;14.20;99.90;;;;;;5001331;28;20438;-71
2023/11/02 02:52:37;;;;;;;1.70;1.60;;;14.20;99.90;;;;;;4986126;28;20453;-71
2023/11/02 02:55:08;;;;;;;2.10;1.90;;;14.20;99.90;;;;;;5002146;28;20414;-71
2023/11/02 02:57:41;;;;;;;3.10;1.90;;;14.20;99.90;;;;;;5001864;28;20776;-71
2023/11/02 03:00:11;;;;;;;1.90;1.63;;;14.20;99.90;;;;;;4985299;28;20474;-71
2023/11/02 03:02:41;;;;;;;3.30;1.70;;;14.20;99.90;;;;;;4985833;28;20841;-71
2023/11/02 03:05:10;;;;;;;2.00;1.80;;;14.10;99.90;;;;;;5001919;28;20400;-71
2023/11/02 03:07:36;;;;;;;4.00;1.70;;;14.20;99.90;;;;;;4985359;28;20873;-71
2023/11/02 03:10:07;;;;;;;6.10;3.13;;;14.10;99.90;;;;;;4985168;28;20436;-71
2023/11/02 03:12:36;;;;;;;2.40;1.70;;;14.20;99.90;;;;;;4968774;28;20452;-71
2023/11/02 03:15:07;;;;;;;3.33;2.10;;;14.20;99.90;;;;;;4985911;28;20440;-71
2023/11/02 03:17:45;;;;;;;2.37;2.00;;;14.10;99.90;;;;;;4969043;28;20904;-71
2023/11/02 03:20:12;;;;;;;2.50;1.60;;;14.10;99.90;;;;;;4984624;28;20548;-71
2023/11/02 03:22:42;;;;;;;1.90;1.60;;;14.10;99.90;;;;;;4984462;28;21061;-71
2023/11/02 03:25:28;;;;;;;2.17;1.97;;;14.10;99.90;;;;;;5001376;28;20498;-72
2023/11/02 03:28:06;;;;;;;3.47;2.40;;;14.10;99.90;;;;;;4971267;28;20454;-71
2023/11/02 03:30:45;;;;;;;3.83;2.47;;;14.10;99.90;;;;;;4984890;28;20421;-71
2023/11/02 03:33:29;;;;;;;2.13;1.83;;;14.10;99.90;;;;;;5000485;28;20444;-70
2023/11/02 03:36:16;;;;;;;3.73;1.77;;;14.10;99.90;;;;;;5000521;28;20510;-71
2023/11/02 03:39:06;;;;;;;2.43;2.10;;;14.10;99.90;;;;;;5003012;28;20409;-71
2023/11/02 03:41:47;;;;;;;2.20;2.00;;;14.10;99.80;;;;;;4968053;28;20487;-71
2023/11/02 03:44:16;;;;;;;3.50;2.30;;;14.10;99.80;;;;;;5002288;28;20966;-72
2023/11/02 03:46:59;;;;;;;3.03;2.40;;;14.10;99.80;;;;;;5000524;28;20924;-71
2023/11/02 03:49:46;;;;;;;2.57;2.37;;;14.10;99.90;;;;;;5000550;28;20444;-70
2023/11/02 03:53:10;;;;;;;1.90;1.80;;;14.10;99.80;;;;;;4984683;28;20446;-71
2023/11/02 03:55:51;;;;;;;2.30;2.10;;;14.10;99.80;;;;;;4911947;28;20469;-71
2023/11/02 03:58:33;;;;;;;2.30;2.00;;;14.10;99.80;;;;;;4943275;28;20417;-71
2023/11/02 04:01:17;;;;;;;3.80;2.03;;;14.10;99.90;;;;;;4994214;28;20491;-71
2023/11/02 04:03:48;;;;;;;2.60;2.20;;;14.10;99.90;;;;;;5001410;28;20419;-70
2023/11/02 04:06:20;;;;;;;3.70;2.50;;;14.10;99.80;;;;;;4984825;28;20429;-72
2023/11/02 04:08:50;;;;;;;2.43;2.23;;;14.00;99.80;;;;;;4982225;28;21163;-71
2023/11/02 04:11:28;;;;;;;1.90;1.80;;;14.00;99.80;;;;;;4981373;28;20416;-72
2023/11/02 04:14:17;;;;;;;2.97;2.23;;;14.00;99.80;;;;;;4980464;28;20452;-70
2023/11/02 04:16:44;;;;;;;3.87;2.20;;;14.10;99.70;;;;;;4980335;28;20513;-71
2023/11/02 04:19:11;;;;;;;3.40;3.10;;;14.00;99.70;;;;;;4963981;28;20444;-71
2023/11/02 04:21:39;;;;;;;2.73;2.40;;;14.00;99.60;;;;;;4964288;28;20865;-71
2023/11/02 04:24:05;;;;;;;4.83;2.07;;;14.00;99.60;;;;;;4980353;28;20493;-72
2023/11/02 04:26:34;;;;;;;4.90;2.03;;;14.00;99.50;;;;;;4963515;28;20435;-71
2023/11/02 04:29:00;;;;;;;3.80;2.60;;;14.00;99.50;;;;;;4964024;28;20405;-71
2023/11/02 04:31:26;;;;;;;2.30;2.10;;;14.00;99.50;;;;;;4963857;28;20453;-71
2023/11/02 04:33:55;;;;;;;3.37;2.13;;;14.10;99.50;;;;;;4980557;28;20431;-71
2023/11/02 04:36:21;;;;;;;2.97;2.23;;;14.00;99.40;;;;;;4981532;28;20784;-70
2023/11/02 04:38:52;;;;;;;2.30;2.10;;;14.00;99.30;;;;;;4980406;28;20511;-72
2023/11/02 04:41:23;;;;;;;2.90;2.10;;;14.00;99.20;;;;;;4979762;28;20468;-71
2023/11/02 04:43:49;;;;;;;2.93;2.00;;;14.00;99.10;;;;;;4981751;28;20968;-70
2023/11/02 04:46:15;;;;;;;9.00;2.50;;;14.00;99.10;;;;;;4980915;28;20398;-71
2023/11/02 04:48:41;;;;;;;7.60;2.73;;;14.00;98.90;;;;;;4947700;28;20812;-71
2023/11/02 04:51:07;;;;;;;4.00;2.40;;;14.00;98.90;;;;;;4979497;28;20409;-71
2023/11/02 04:53:35;;;;;;;3.20;2.20;;;14.00;98.90;;;;;;4979753;28;20753;-71
2023/11/02 04:56:01;;;;;;;2.70;1.83;;;14.00;98.80;;;;;;4980020;28;20454;-71
2023/11/02 04:58:27;;;;;;;6.80;2.43;;;14.00;98.70;;;;;;4980436;28;20444;-70
2023/11/02 05:00:54;;;;;;;3.03;1.90;;;14.00;98.60;;;;;;4979419;28;20997;-71
2023/11/02 05:03:20;;;;;;;6.10;2.00;;;14.00;98.60;;;;;;4980278;28;20952;-70
2023/11/02 05:05:53;;;;;;;8.50;2.27;;;14.00;98.60;;;;;;4980562;28;20688;-71
2023/11/02 05:08:23;;;;;;;5.63;2.43;;;14.00;98.60;;;;;;4980606;28;20496;-71
2023/11/02 05:10:56;;;;;;;11.33;2.77;;;14.00;98.40;;;;;;4964880;28;20421;-72
2023/11/02 05:13:29;;;;;;;4.00;1.93;;;14.10;98.40;;;;;;4982367;28;21249;-71
2023/11/02 05:15:59;;;;;;;6.63;1.97;;;14.00;98.20;;;;;;4981580;28;20814;-71
2023/11/02 05:18:29;;;;;;;3.33;2.07;;;14.00;98.20;;;;;;4982906;28;20496;-72
2023/11/02 05:20:57;;;;;;;2.43;2.20;;;14.00;98.10;;;;;;4965988;28;20999;-71
2023/11/02 05:23:27;;;;;;;8.93;2.83;;;14.00;98.00;;;;;;4949336;28;20453;-71
2023/11/02 05:25:57;;;;;;;3.43;2.43;;;14.00;98.00;;;;;;4966302;28;20481;-72
2023/11/02 05:28:26;;;;;;;3.90;2.20;;;14.00;98.00;;;;;;4980632;28;20424;-71
2023/11/02 05:30:55;;;;;;;7.43;2.70;;;14.00;98.00;;;;;;5001097;28;20863;-72
2023/11/02 05:33:23;;;;;;;5.70;2.20;;;14.00;98.00;;;;;;4985429;28;20448;-71
2023/11/02 05:35:50;;;;;;;10.33;3.27;;;14.10;98.00;;;;;;4986062;28;20423;-71
2023/11/02 05:38:16;;;;;;;4.50;2.90;;;14.00;97.90;;;;;;5001894;28;20445;-77
2023/11/02 05:40:46;;;;;;;2.83;2.13;;;14.00;97.80;;;;;;4970461;28;20558;-75
2023/11/02 05:43:15;;;;;;;4.10;2.47;;;14.00;97.80;;;;;;4993194;28;20452;-75
2023/11/02 05:45:41;;;;;;;2.83;2.17;;;14.00;97.80;;;;;;4994790;28;20410;-73
2023/11/02 05:48:11;;;;;;;3.20;2.30;;;14.00;97.80;;;;;;4970673;28;20425;-75
2023/11/02 05:50:36;;;;;;;4.90;2.20;;;14.00;97.70;;;;;;4967594;28;20459;-75
2023/11/02 05:53:03;;;;;;;3.20;2.23;;;14.00;97.70;;;;;;4998634;28;21050;-76
2023/11/02 05:55:34;;;;;;;3.23;2.17;;;14.00;97.70;;;;;;5000870;28;20281;-77
2023/11/02 05:58:00;;;;;;;3.43;3.13;;;14.00;97.70;;;;;;4991938;28;20420;-76
2023/11/02 06:00:26;;;;;;;4.13;2.00;;;14.00;97.70;;;;;;4973858;28;20454;-76
2023/11/02 06:02:52;;;;;;;6.80;2.27;;;14.00;97.70;;;;;;4975366;28;20452;-76
2023/11/02 06:05:25;;;;;;;2.80;2.60;;;14.00;97.70;;;;;;4994950;28;20492;-76
2023/11/02 06:07:54;;;;;;;3.00;2.80;;;14.00;98.00;;;;;;4980508;28;20919;-76
2023/11/02 06:10:25;;;;;;;5.13;2.40;;;14.00;98.00;;;;;;4980405;28;20471;-76
2023/11/02 06:12:54;;;;;;;2.47;2.20;;;14.00;97.70;;;;;;4979312;28;20463;-76
2023/11/02 06:15:21;;;;;;;2.60;2.40;;;14.00;97.70;;;;;;4968940;28;20498;-76
2023/11/02 06:17:50;;;;;;;5.90;2.47;;;14.00;97.80;;;;;;5000814;28;20494;-76
2023/11/02 06:20:17;;;;;;;2.40;2.20;;;14.00;97.80;;;;;;4999581;28;21028;-76
2023/11/02 06:22:44;;;;;;;1.93;1.80;;;14.00;97.80;;;;;;4975489;28;20473;-76
2023/11/02 06:25:12;;;;;;;4.10;2.30;;;14.00;97.90;;;;;;5000134;28;20500;-76
2023/11/02 06:27:39;;;;;;;3.00;1.97;;;14.00;97.90;;;;;;4991960;28;20442;-76
2023/11/02 06:30:09;;;;;;;3.50;2.13;;;14.00;97.90;;;;;;4955896;28;20945;-76
2023/11/02 06:32:38;;;;;;;2.20;1.90;;;14.00;97.90;;;;;;4997253;28;20454;-76
2023/11/02 06:35:05;;;;;;;3.00;2.20;;;14.00;98.00;;;;;;4980262;28;20459;-76
2023/11/02 06:37:54;;;;;;;4.93;1.70;;;14.00;98.00;;;;;;4990191;28;20459;-77
2023/11/02 06:40:21;;;;;;;2.10;2.00;;;14.00;98.00;;;;;;5000994;28;20459;-76
2023/11/02 06:42:50;;;;;;;1.93;1.83;;;14.00;98.00;;;;;;4986966;28;20475;-76
2023/11/02 06:45:23;;;;;;;3.00;2.23;;;14.00;98.00;;;;;;5003816;28;20457;-76
2023/11/02 06:47:51;;;;;;;5.43;2.43;;;14.00;98.00;;;;;;4997042;28;20412;-76
2023/11/02 06:50:18;;;;;;;2.30;2.10;;;14.00;98.10;;;;;;5003653;28;20439;-77
2023/11/02 06:52:45;;;;;;;2.10;2.00;;;14.00;98.10;;;;;;4984862;28;21965;-76
2023/11/02 06:55:19;;;;;;;2.30;2.10;;;14.00;98.10;;;;;;4981466;28;20459;-75
2023/11/02 06:57:47;;;;;;;2.33;1.90;;;14.00;98.20;;;;;;5005450;28;20395;-79
2023/11/02 07:00:16;;;;;;;2.50;1.90;;;14.00;98.30;;;;;;5004880;28;20505;-75
2023/11/02 07:02:44;;;;;;;2.60;2.00;;;14.00;98.30;;;;;;4998608;28;20234;-76
2023/11/02 07:05:11;;;;;;;2.43;2.20;;;14.00;98.20;;;;;;4995487;28;20510;-75
2023/11/02 07:07:40;;;;;;;3.70;2.00;;;14.00;98.30;;;;;;4975942;28;20459;-75
2023/11/02 07:10:14;;;;;;;3.53;2.03;;;14.00;98.30;;;;;;4985732;28;21022;-76
2023/11/02 07:12:46;;;;;;;1.80;1.70;;;14.00;98.50;;;;;;4997621;28;20570;-75
2023/11/02 07:15:13;;;;;;;2.60;1.70;;;14.00;98.60;;;;;;5001547;28;20456;-75
2023/11/02 07:17:45;;;;;;;2.53;2.33;;;14.00;98.80;;;;;;4983396;28;20889;-75
2023/11/02 07:20:14;;;;;;;3.13;1.60;;;14.00;98.90;;;;;;4996946;28;20428;-76
2023/11/02 07:22:46;;;;;;;1.80;1.70;;;14.00;99.10;;;;;;4986324;28;20516;-75
2023/11/02 07:25:12;;;;;;;2.20;1.90;;;14.00;99.20;;;;;;4995428;28;21403;-76
2023/11/02 07:27:38;;;;;;;2.33;2.13;;;14.00;99.30;;;;;;5001678;28;20556;-75
2023/11/02 07:30:23;;;;;;;4.03;2.40;;;14.00;99.40;;;;;;4996047;28;20437;-76
2023/11/02 07:32:49;;;;;;;3.93;1.90;;;14.00;99.60;;;;;;5001527;28;20504;-75
2023/11/02 07:35:18;;;;;;;2.93;2.03;;;14.00;99.70;;;;;;5001915;28;20428;-76
2023/11/02 07:37:46;;;;;;;1.80;1.70;;;14.00;99.80;;;;;;4972360;28;20537;-76
2023/11/02 07:40:12;;;;;;;2.30;1.60;;;14.00;99.90;;;;;;4999445;28;20467;-75
2023/11/02 07:42:42;;;;;;;3.43;2.00;;;14.00;99.90;;;;;;4984816;28;21102;-75
2023/11/02 07:45:08;;;;;;;1.70;1.60;;;14.00;99.90;;;;;;5003065;28;20468;-76
2023/11/02 07:47:40;;;;;;;3.30;1.80;;;14.00;99.90;;;;;;5002750;28;20794;-76
2023/11/02 07:50:07;;;;;;;2.40;2.20;;;14.00;99.90;;;;;;5000724;28;20530;-76
2023/11/02 07:52:35;;;;;;;2.20;2.00;;;14.00;99.90;;;;;;5001722;28;20529;-76
2023/11/02 07:55:03;;;;;;;2.10;1.73;;;14.00;99.90;;;;;;4984144;28;20490;-75
2023/11/02 07:57:29;;;;;;;2.70;2.03;;;14.00;99.90;;;;;;5000824;28;21008;-76
2023/11/02 07:59:55;;;;;;;1.77;1.67;;;14.00;99.90;;;;;;5000209;28;20436;-74
2023/11/02 08:02:25;;;;;;;2.53;1.90;;;14.00;99.90;;;;;;4983887;28;20472;-76
2023/11/02 08:04:51;;;;;;;1.80;1.70;;;14.00;99.90;;;;;;4995011;28;20491;-75
2023/11/02 08:07:23;;;;;;;1.57;1.47;;;14.00;99.90;;;;;;5001315;28;20476;-73
2023/11/02 08:09:53;;;;;;;2.20;2.00;;;14.00;99.90;;;;;;4984565;28;20463;-76
2023/11/02 08:12:21;;;;;;;1.63;1.53;;;14.00;99.90;;;;;;4997371;28;20907;-75
2023/11/02 08:14:54;;;;;;;2.80;1.83;;;14.00;99.90;;;;;;4984376;28;20440;-76
2023/11/02 08:17:23;;;;;;;3.43;1.90;;;14.00;99.90;;;;;;5002839;28;20987;-76
2023/11/02 08:19:52;;;;;;;2.63;2.23;;;14.00;99.90;;;;;;5002866;28;20425;-75
2023/11/02 08:22:21;;;;;;;1.73;1.63;;;14.00;99.90;;;;;;5000008;28;20483;-75
2023/11/02 08:24:52;;;;;;;3.67;2.10;;;14.00;99.90;;;;;;4989053;28;20414;-75
2023/11/02 08:27:18;;;;;;;2.00;1.90;;;13.90;99.90;;;;;;4987775;28;20923;-75
2023/11/02 08:29:51;;;;;;;3.43;1.90;;;13.90;99.90;;;;;;4981164;28;20872;-75
2023/11/02 08:32:19;;;;;;;2.30;1.93;;;14.00;99.90;;;;;;4995724;28;20958;-75
2023/11/02 08:34:46;;;;;;;2.90;1.80;;;14.00;99.90;;;;;;4991874;28;20712;-75
2023/11/02 08:37:12;;;;;;;1.87;1.77;;;14.00;99.90;;;;;;4964505;28;20433;-75
2023/11/02 08:39:45;;;;;;;1.83;1.73;;;14.00;99.90;;;;;;4983301;28;20440;-76
2023/11/02 08:42:11;;;;;;;1.90;1.80;;;14.00;99.90;;;;;;4999929;28;20473;-75
2023/11/02 08:44:42;;;;;;;1.83;1.73;;;14.00;99.90;;;;;;5000115;28;20535;-76
2023/11/02 08:47:08;;;;;;;2.43;2.23;;;14.00;99.90;;;;;;5000835;28;20538;-75
2023/11/02 08:49:38;;;;;;;1.83;1.73;;;14.00;99.90;;;;;;5002093;28;20815;-76
2023/11/02 08:52:09;;;;;;;2.67;1.70;;;14.00;99.90;;;;;;4995497;28;20468;-75
2023/11/02 08:54:39;;;;;;;1.83;1.73;;;13.90;99.90;;;;;;4974976;28;20896;-75
2023/11/02 08:57:05;;;;;;;2.57;2.20;;;14.00;99.90;;;;;;4969847;28;20503;-75
2023/11/02 08:59:43;;;;;;;1.97;1.87;;;14.00;99.90;;;;;;4999292;28;20461;-75
2023/11/02 09:02:10;;;;;;;2.27;1.80;;;14.00;99.90;;;;;;5002003;28;20574;-75
2023/11/02 09:04:36;;;;;;;2.03;1.93;;;13.90;99.90;;;;;;4983922;28;20987;-76
2023/11/02 09:07:12;;;;;;;2.50;2.30;;;13.90;99.90;;;;;;4995265;28;20435;-75
2023/11/02 09:09:43;;;;;;;2.10;1.90;;;13.90;99.90;;;;;;5002307;28;20435;-74
2023/11/02 09:12:15;;;;;;;2.20;2.00;;;14.00;99.90;;;;;;4999420;28;20464;-74
2023/11/02 09:14:42;;;;;;;1.80;1.70;;;14.00;99.90;;;;;;4990788;28;20961;-74
2023/11/02 09:17:10;;;;;;;2.33;2.13;;;14.00;99.90;;;;;;4975438;28;20439;-74
2023/11/02 09:19:37;;;;;;;2.70;2.03;;;13.90;99.90;;;;;;4983908;28;20444;-74
2023/11/02 09:22:08;;;;;;;1.70;1.60;;;14.00;99.90;;;;;;4993116;28;20529;-74
2023/11/02 09:24:35;;;;;;;2.40;1.77;;;14.00;99.90;;;;;;4966752;28;20802;-75
2023/11/02 09:27:02;;;;;;;2.07;1.83;;;14.00;99.90;;;;;;4963457;28;20533;-74
2023/11/02 09:29:33;;;;;;;2.77;2.03;;;14.00;99.90;;;;;;4990270;28;20519;-74
2023/11/02 09:31:59;;;;;;;2.00;1.90;;;14.00;99.90;;;;;;4983252;28;20449;-74
2023/11/02 09:34:27;;;;;;;2.23;2.13;;;14.00;99.90;;;;;;4967550;28;20432;-74
2023/11/02 09:36:53;;;;;;;2.70;2.07;;;14.00;99.90;;;;;;4964368;28;20667;-74
2023/11/02 09:39:21;;;;;;;2.57;2.37;;;14.00;99.90;;;;;;4975554;28;20441;-74
2023/11/02 09:41:49;;;;;;;2.33;2.13;;;14.00;99.90;;;;;;4995705;28;20552;-74
2023/11/02 09:44:19;;;;;;;2.90;2.30;;;14.10;99.90;;;;;;4990897;28;20432;-74
2023/11/02 09:46:45;;;;;;;2.00;1.90;;;14.00;99.90;;;;;;4998754;28;20444;-74
2023/11/02 09:49:14;;;;;;;4.90;2.40;;;14.00;99.90;;;;;;4999472;28;20451;-74
2023/11/02 09:51:43;;;;;;;2.00;1.90;;;14.00;99.90;;;;;;4992015;28;20440;-74
2023/11/02 09:54:15;;;;;;;2.30;2.20;;;14.00;99.90;;;;;;4966476;28;20474;-75
2023/11/02 09:56:44;;;;;;;6.57;2.33;;;14.00;99.90;;;;;;4990580;28;20449;-74
2023/11/02 09:59:14;;;;;;;2.80;2.13;;;14.00;99.90;;;;;;4991474;28;20472;-74
2023/11/02 10:01:44;;;;;;;2.20;2.00;;;14.00;99.90;;;;;;4998843;28;21056;-74
2023/11/02 10:04:14;;;;;;;2.40;2.10;;;14.00;99.90;;;;;;4983032;28;20493;-74
2023/11/02 10:06:46;;;;;;;2.40;1.80;;;14.00;99.90;;;;;;4982601;28;20439;-74
2023/11/02 10:09:13;;;;;;;2.00;1.90;;;14.00;99.90;;;;;;4994335;28;20520;-74
2023/11/02 10:11:41;;;;;;;2.90;1.97;;;14.00;99.90;;;;;;4980701;28;20834;-74
2023/11/02 10:14:11;;;;;;;2.30;2.10;;;14.00;99.90;;;;;;4995761;28;20834;-74
2023/11/02 10:16:39;;;;;;;1.93;1.83;;;14.00;99.90;;;;;;4999573;28;20478;-74
2023/11/02 10:19:08;;;;;;;2.07;1.93;;;14.10;99.90;;;;;;4996186;28;20491;-73
2023/11/02 10:21:36;;;;;;;1.93;1.80;;;14.10;99.90;;;;;;4968613;28;20514;-74
2023/11/02 10:24:07;;;;;;;2.37;2.17;;;14.10;99.90;;;;;;4996378;28;20772;-75
2023/11/02 10:26:34;;;;;;;2.67;2.00;;;14.10;99.90;;;;;;4986195;28;20941;-74
2023/11/02 10:29:04;;;;;;;2.10;1.90;;;14.10;99.90;;;;;;5003920;28;20429;-74
2023/11/02 10:31:33;;;;;;;2.20;2.10;;;14.10;99.90;;;;;;4995606;28;20449;-74
2023/11/02 10:34:06;;;;;;;2.97;2.00;;;14.10;99.90;;;;;;4995410;28;21217;-74
2023/11/02 10:36:33;;;;;;;5.10;2.00;;;14.10;99.90;;;;;;5002283;28;20441;-74
2023/11/02 10:39:02;;;;;;;2.10;1.90;;;14.10;99.90;;;;;;4986076;28;20534;-74
2023/11/02 10:41:32;;;;;;;2.03;1.80;;;14.10;99.90;;;;;;4985124;28;20545;-74
2023/11/02 10:44:15;;;;;;;6.07;2.50;;;14.10;99.90;;;;;;4975773;28;20451;-75
2023/11/02 10:46:44;;;;;;;2.07;1.90;;;14.10;99.90;;;;;;4977565;28;20463;-74
2023/11/02 10:49:13;;;;;;;2.10;2.00;;;14.10;99.90;;;;;;5001010;28;20483;-74
2023/11/02 10:51:46;;;;;;;1.63;1.50;;;14.10;99.90;;;;;;5002012;28;20531;-74
2023/11/02 10:54:39;;;;;;;2.60;1.90;;;14.10;99.90;;;;;;5001706;28;20500;-75
2023/11/02 10:57:16;;;;;;;2.13;2.00;;;14.10;99.90;;;;;;4964285;28;20451;-75
2023/11/02 10:59:44;;;;;;;2.67;1.80;;;14.10;99.90;;;;;;5003068;28;20490;-75
2023/11/02 11:02:18;;;;;;;3.23;1.80;;;14.10;99.90;;;;;;4978331;28;20494;-75
2023/11/02 11:04:47;;;;;;;2.70;2.03;;;14.10;99.90;;;;;;4987282;28;20479;-74
2023/11/02 11:07:16;;;;;;;3.07;2.13;;;14.10;99.90;;;;;;5003576;28;20499;-78
2023/11/02 11:09:48;;;;;;;3.47;2.20;;;14.10;99.90;;;;;;5003924;28;20458;-75
2023/11/02 11:12:17;;;;;;;3.50;2.30;;;14.10;99.90;;;;;;5001146;28;20550;-74
2023/11/02 11:14:48;;;;;;;4.20;2.20;;;14.10;99.90;;;;;;4985765;28;20436;-75
2023/11/02 11:17:19;;;;;;;3.27;2.00;;;14.10;99.90;;;;;;4986805;28;21318;-74
2023/11/02 11:19:47;;;;;;;3.87;2.13;;;14.20;99.90;;;;;;4985803;28;21293;-75
2023/11/02 11:22:21;;;;;;;4.17;2.10;;;14.20;99.90;;;;;;4983267;28;20579;-75
2023/11/02 11:24:54;;;;;;;6.37;2.17;;;14.20;99.90;;;;;;4996002;28;20440;-72
2023/11/02 11:27:31;;;;;;;3.47;2.23;;;14.20;99.90;;;;;;4984643;28;20559;-71
2023/11/02 11:30:00;;;;;;;4.47;2.17;;;14.20;99.90;;;;;;4996131;28;20990;-72
2023/11/02 11:32:27;;;;;;;5.20;2.80;;;14.20;99.90;;;;;;4985277;28;20455;-73
2023/11/02 11:34:58;;;;;;;4.93;2.90;;;14.20;99.90;;;;;;5001522;28;20436;-72
2023/11/02 11:37:47;;;;;;;4.73;2.20;;;14.20;99.90;;;;;;5002813;28;20489;-72
2023/11/02 11:40:20;;;;;;;4.00;2.10;;;14.20;99.90;;;;;;4969676;28;20556;-72
2023/11/02 11:43:06;;;;;;;3.00;1.93;;;14.20;99.80;;;;;;5002521;28;20489;-72
2023/11/02 11:46:00;;;;;;;5.33;2.57;;;14.30;99.80;;;;;;4993260;28;20511;-73
2023/11/02 11:48:40;;;;;;;5.00;2.53;;;14.20;99.80;;;;;;5002733;28;20442;-72
2023/11/02 11:51:31;;;;;;;7.13;2.40;;;14.30;99.80;;;;;;4990156;28;20456;-72
2023/11/02 11:54:15;;;;;;;4.40;2.40;;;14.30;99.70;;;;;;4994890;28;20439;-73
2023/11/02 11:56:47;;;;;;;2.73;2.27;;;14.30;99.60;;;;;;4985184;28;20420;-73
2023/11/02 11:59:17;;;;;;;3.63;2.30;;;14.30;99.50;;;;;;5000357;28;20423;-71
2023/11/02 12:02:22;;;;;;;3.20;2.43;;;14.30;99.30;;;;;;4998975;28;20469;-73
2023/11/02 12:04:56;;;;;;;4.47;2.50;;;14.30;99.30;;;;;;5000250;28;20449;-72
2023/11/02 12:07:26;;;;;;;2.93;2.33;;;14.30;99.00;;;;;;5000924;28;20847;-72
2023/11/02 12:09:55;;;;;;;4.93;2.17;;;14.30;98.80;;;;;;5000158;28;20495;-73
2023/11/02 12:12:22;;;;;;;2.87;2.40;;;14.30;98.80;;;;;;5001819;28;20459;-73
2023/11/02 12:14:51;;;;;;;4.50;2.30;;;14.30;98.70;;;;;;4980731;28;20475;-72
2023/11/02 12:17:18;;;;;;;2.67;1.80;;;14.40;98.60;;;;;;4997741;28;20436;-71
2023/11/02 12:19:45;;;;;;;9.13;2.20;;;14.40;98.50;;;;;;5000618;28;20606;-72
2023/11/02 12:22:13;;;;;;;3.83;2.53;;;14.40;98.40;;;;;;4983421;28;20553;-71
2023/11/02 12:24:40;;;;;;;6.07;2.47;;;14.40;98.30;;;;;;4982816;28;20465;-72
2023/11/02 12:27:15;;;;;;;3.70;2.53;;;14.40;98.20;;;;;;5001072;28;20436;-71
2023/11/02 12:30:00;;;;;;;4.33;2.50;;;14.40;98.10;;;;;;4999828;28;20936;-71
2023/11/02 12:32:26;;;;;;;10.03;2.77;;;14.40;98.10;;;;;;4980656;28;20455;-72
2023/11/02 12:34:56;;;;;;;6.73;2.60;;;14.40;97.90;;;;;;5000519;28;20473;-71
2023/11/02 12:37:23;;;;;;;6.03;2.60;;;14.40;97.90;;;;;;4993161;28;20824;-72
2023/11/02 12:40:00;;;;;;;4.70;2.00;;;14.40;97.80;;;;;;5001119;28;20865;-71
2023/11/02 12:42:26;;;;;;;5.90;2.47;;;14.40;97.70;;;;;;4992587;28;20476;-72
2023/11/02 12:44:52;;;;;;;3.50;2.50;;;14.50;97.80;;;;;;4978358;28;20433;-72
2023/11/02 12:47:19;;;;;;;6.30;2.60;;;14.50;97.70;;;;;;4979868;28;20474;-75
2023/11/02 12:49:50;;;;;;;6.43;2.40;;;14.50;97.70;;;;;;4993951;28;20454;-71
2023/11/02 12:52:16;;;;;;;6.60;2.40;;;14.50;97.60;;;;;;4997149;28;20463;-72
2023/11/02 12:54:56;;;;;;;7.10;3.00;;;14.50;97.70;;;;;;4982946;28;20531;-76
2023/11/02 12:57:27;;;;;;;3.43;1.80;;;14.50;97.70;;;;;;4999497;28;20479;-72
2023/11/02 12:59:54;;;;;;;8.63;2.70;;;14.50;97.50;;;;;;4999413;28;20971;-70
2023/11/02 13:02:27;;;;;;;4.40;2.20;;;14.50;97.30;;;;;;4990311;28;20815;-72
2023/11/02 13:04:54;;;;;;;7.27;3.17;;;14.50;97.30;;;;;;4998469;28;20440;-72
2023/11/02 13:07:28;;;;;;;7.73;2.87;;;14.50;97.30;;;;;;4999451;28;20516;-73
2023/11/02 13:10:10;;;;;;;6.20;2.50;;;14.50;97.10;;;;;;4994763;28;20828;-72